Time;durP1;ratioP1;P1;durP2;ratioP2;P2;SDS_P1;SDS_P2;PMS_P1;PMS_P2;Temp;Humidity;BMP_temperature;BMP_pressure;BME280_temperature;BME280_humidity;BME280_pressure;Samples;Min_cycle;Max_cycle;Signal;HPM_P1;HPM_P2
2023/04/02 00:02:20;;;;;;;3.13;2.93;;;;;;;;;;5024057;28;20231;-68
2023/04/02 00:05:09;;;;;;;3.30;3.03;;;;;;;;;;5021352;28;20212;-68
2023/04/02 00:07:39;;;;;;;3.50;3.20;;;;;;;;;;5020171;28;20280;-68
2023/04/02 00:10:25;;;;;;;2.90;2.70;;;;;;;;;;5022490;28;20217;-68
2023/04/02 00:13:00;;;;;;;2.80;2.60;;;;;;;;;;5019661;28;20200;-68
2023/04/02 00:15:27;;;;;;;3.10;2.80;;;;;;;;;;5019303;28;20282;-68
2023/04/02 00:17:54;;;;;;;2.83;2.63;;;;;;;;;;5020340;28;20220;-68
2023/04/02 00:20:22;;;;;;;2.77;2.57;;;;;;;;;;5022420;28;20263;-68
2023/04/02 00:22:51;;;;;;;3.20;2.70;;;;;;;;;;5016773;28;20208;-67
2023/04/02 00:25:18;;;;;;;3.10;2.90;;;;;;;;;;5017725;28;20204;-68
2023/04/02 00:27:45;;;;;;;2.90;2.60;;;;;;;;;;5024917;28;20243;-68
2023/04/02 00:30:13;;;;;;;3.20;2.93;;;;;;;;;;5022155;28;20204;-68
2023/04/02 00:32:40;;;;;;;2.93;2.73;;;;;;;;;;5022149;28;20220;-68
2023/04/02 00:35:11;;;;;;;3.70;3.40;;;;;;;;;;5021330;28;20212;-68
2023/04/02 00:37:41;;;;;;;3.03;2.83;;;;;;;;;;5021074;28;20207;-68
2023/04/02 00:40:15;;;;;;;3.20;3.00;;;;;;;;;;5019621;28;20216;-68
2023/04/02 00:42:43;;;;;;;3.10;2.90;;;;;;;;;;5021756;28;20204;-68
2023/04/02 00:45:17;;;;;;;3.03;2.83;;;;;;;;;;5022938;28;20302;-68
2023/04/02 00:47:44;;;;;;;3.10;2.90;;;;;;;;;;5018326;28;20208;-68
2023/04/02 00:50:19;;;;;;;3.67;3.47;;;;;;;;;;5018227;28;20216;-68
2023/04/02 00:52:48;;;;;;;3.00;2.80;;;;;;;;;;5022264;28;20210;-68
2023/04/02 00:55:20;;;;;;;2.70;2.50;;;;;;;;;;5018196;28;20208;-68
2023/04/02 00:57:49;;;;;;;2.70;2.50;;;;;;;;;;5019102;28;20216;-68
2023/04/02 01:00:21;;;;;;;2.83;2.63;;;;;;;;;;5021150;28;20208;-67
2023/04/02 01:03:03;;;;;;;3.17;2.97;;;;;;;;;;5021336;28;20247;-67
2023/04/02 01:05:34;;;;;;;2.83;2.63;;;;;;;;;;5018569;28;20211;-68
2023/04/02 01:08:05;;;;;;;3.53;3.23;;;;;;;;;;5021031;28;20208;-68
2023/04/02 01:10:39;;;;;;;3.00;2.80;;;;;;;;;;5020105;28;20215;-67
2023/04/02 01:13:12;;;;;;;2.47;2.30;;;;;;;;;;5018553;28;20208;-68
2023/04/02 01:15:41;;;;;;;3.87;2.43;;;;;;;;;;5018651;28;20212;-68
2023/04/02 01:18:20;;;;;;;2.90;2.70;;;;;;;;;;5017603;28;20219;-67
2023/04/02 01:21:20;;;;;;;2.80;2.60;;;;;;;;;;5021087;28;20227;-68
2023/04/02 01:23:53;;;;;;;2.60;2.50;;;;;;;;;;4974505;28;20330;-68
2023/04/02 01:26:27;;;;;;;2.63;2.43;;;;;;;;;;5016905;28;20208;-68
2023/04/02 01:29:01;;;;;;;2.87;2.67;;;;;;;;;;5020597;28;20221;-68
2023/04/02 01:31:29;;;;;;;2.63;2.43;;;;;;;;;;5020506;28;20209;-67
2023/04/02 01:33:56;;;;;;;3.10;2.80;;;;;;;;;;5022697;28;20236;-68
2023/04/02 01:36:27;;;;;;;3.80;3.50;;;;;;;;;;5018183;28;20255;-67
2023/04/02 01:38:58;;;;;;;3.37;3.07;;;;;;;;;;5025293;28;20205;-67
2023/04/02 01:41:27;;;;;;;2.90;2.70;;;;;;;;;;5022668;28;20244;-67
2023/04/02 01:44:00;;;;;;;3.23;3.03;;;;;;;;;;5022489;28;20200;-68
2023/04/02 01:46:30;;;;;;;3.63;3.33;;;;;;;;;;5024025;28;20204;-68
2023/04/02 01:48:58;;;;;;;3.17;2.97;;;;;;;;;;5018551;28;20205;-67
2023/04/02 01:51:29;;;;;;;3.47;3.10;;;;;;;;;;5023480;28;20205;-67
2023/04/02 01:53:59;;;;;;;2.30;2.20;;;;;;;;;;5023228;28;20200;-68
2023/04/02 01:56:27;;;;;;;3.03;2.83;;;;;;;;;;5020976;28;20208;-68
2023/04/02 01:58:54;;;;;;;2.90;2.70;;;;;;;;;;5023504;28;20215;-69
2023/04/02 02:01:22;;;;;;;3.40;2.63;;;;;;;;;;5026138;28;20231;-68
2023/04/02 02:03:51;;;;;;;2.97;2.77;;;;;;;;;;5025063;28;20208;-68
2023/04/02 02:06:19;;;;;;;2.30;2.20;;;;;;;;;;5025323;28;20203;-68
2023/04/02 02:08:48;;;;;;;3.00;2.80;;;;;;;;;;5023055;28;20294;-68
2023/04/02 02:11:16;;;;;;;2.73;2.53;;;;;;;;;;5023596;28;20224;-68
2023/04/02 02:13:46;;;;;;;3.00;2.80;;;;;;;;;;5028419;28;20212;-68
2023/04/02 02:16:17;;;;;;;2.77;2.57;;;;;;;;;;5025401;28;20232;-68
2023/04/02 02:18:45;;;;;;;2.40;2.30;;;;;;;;;;5018709;28;20205;-67
2023/04/02 02:21:20;;;;;;;2.70;2.50;;;;;;;;;;5024227;28;20234;-68
2023/04/02 02:23:47;;;;;;;2.97;2.70;;;;;;;;;;5021721;28;20227;-68
2023/04/02 02:26:14;;;;;;;3.00;2.80;;;;;;;;;;5025219;28;20211;-67
2023/04/02 02:28:44;;;;;;;2.67;2.47;;;;;;;;;;5021452;28;20232;-67
2023/04/02 02:31:16;;;;;;;2.63;2.43;;;;;;;;;;5026467;28;20206;-67
2023/04/02 02:33:44;;;;;;;2.33;2.23;;;;;;;;;;5022773;28;20297;-68
2023/04/02 02:36:14;;;;;;;2.50;2.00;;;;;;;;;;5021351;28;20215;-68
2023/04/02 02:38:48;;;;;;;2.20;2.10;;;;;;;;;;5024566;28;20212;-68
2023/04/02 02:41:18;;;;;;;2.37;2.17;;;;;;;;;;5022245;28;20286;-67
2023/04/02 02:43:49;;;;;;;2.30;2.20;;;;;;;;;;5021335;28;20209;-67
2023/04/02 02:46:18;;;;;;;1.73;1.60;;;;;;;;;;5024917;28;20201;-67
2023/04/02 02:48:46;;;;;;;4.00;2.40;;;;;;;;;;5025834;28;20204;-67
2023/04/02 02:51:18;;;;;;;2.30;2.00;;;;;;;;;;5019229;28;20220;-67
2023/04/02 02:53:49;;;;;;;2.00;1.90;;;;;;;;;;5023000;28;20216;-67
2023/04/02 02:56:16;;;;;;;9.83;2.30;;;;;;;;;;5029380;28;20211;-67
2023/04/02 02:58:43;;;;;;;2.07;1.97;;;;;;;;;;5022298;28;20212;-67
2023/04/02 03:01:11;;;;;;;3.67;1.83;;;;;;;;;;5019446;28;20227;-67
2023/04/02 03:03:38;;;;;;;2.13;2.03;;;;;;;;;;5020979;28;20299;-67
2023/04/02 03:06:07;;;;;;;2.50;2.30;;;;;;;;;;5021491;28;20212;-67
2023/04/02 03:08:37;;;;;;;2.10;1.90;;;;;;;;;;5021344;28;20204;-67
2023/04/02 03:11:07;;;;;;;2.30;2.20;;;;;;;;;;5020011;28;20208;-67
2023/04/02 03:13:35;;;;;;;1.80;1.70;;;;;;;;;;5020257;28;20204;-67
2023/04/02 03:16:04;;;;;;;2.20;2.10;;;;;;;;;;5024552;28;20223;-68
2023/04/02 03:18:35;;;;;;;2.33;2.10;;;;;;;;;;5020749;28;20205;-67
2023/04/02 03:21:06;;;;;;;1.90;1.80;;;;;;;;;;5029331;28;20227;-67
2023/04/02 03:23:36;;;;;;;2.30;2.20;;;;;;;;;;5023292;28;20209;-67
2023/04/02 03:26:06;;;;;;;2.23;2.10;;;;;;;;;;5031067;28;20208;-68
2023/04/02 03:28:37;;;;;;;2.30;2.20;;;;;;;;;;5024074;28;20246;-68
2023/04/02 03:31:06;;;;;;;1.70;1.60;;;;;;;;;;5020263;28;20266;-68
2023/04/02 03:33:35;;;;;;;1.97;1.77;;;;;;;;;;5022936;28;20205;-67
2023/04/02 03:36:06;;;;;;;2.07;1.97;;;;;;;;;;5021617;28;20197;-67
2023/04/02 03:38:36;;;;;;;2.33;1.87;;;;;;;;;;5016363;28;20209;-67
2023/04/02 03:41:05;;;;;;;1.50;1.50;;;;;;;;;;5022897;28;20208;-67
2023/04/02 03:43:35;;;;;;;1.73;1.63;;;;;;;;;;5018516;28;20213;-67
2023/04/02 03:46:11;;;;;;;1.43;1.40;;;;;;;;;;5016130;28;20251;-67
2023/04/02 03:48:40;;;;;;;1.80;1.70;;;;;;;;;;5019106;28;20204;-67
2023/04/02 03:51:10;;;;;;;2.00;1.90;;;;;;;;;;5020014;28;20205;-68
2023/04/02 03:53:38;;;;;;;2.07;1.97;;;;;;;;;;5024943;28;20204;-67
2023/04/02 03:56:06;;;;;;;2.33;2.23;;;;;;;;;;5023460;28;20208;-68
2023/04/02 03:58:37;;;;;;;2.70;2.50;;;;;;;;;;5020716;28;20205;-67
2023/04/02 04:01:08;;;;;;;2.20;2.00;;;;;;;;;;5020869;28;20202;-68
2023/04/02 04:03:39;;;;;;;2.17;2.07;;;;;;;;;;5024556;28;20200;-68
2023/04/02 04:06:08;;;;;;;2.80;2.60;;;;;;;;;;5024502;28;20215;-67
2023/04/02 04:08:41;;;;;;;2.50;2.40;;;;;;;;;;5022264;28;20204;-67
2023/04/02 04:11:10;;;;;;;2.40;2.20;;;;;;;;;;5025751;28;20224;-67
2023/04/02 04:13:41;;;;;;;2.20;2.10;;;;;;;;;;5021273;28;20208;-67
2023/04/02 04:16:12;;;;;;;3.00;2.80;;;;;;;;;;5018857;28;20222;-68
2023/04/02 04:18:43;;;;;;;3.00;2.70;;;;;;;;;;5021322;28;20205;-67
2023/04/02 04:21:14;;;;;;;4.00;3.03;;;;;;;;;;5016240;28;20219;-67
2023/04/02 04:23:48;;;;;;;2.70;2.50;;;;;;;;;;5016669;28;20208;-68
2023/04/02 04:26:19;;;;;;;3.33;3.03;;;;;;;;;;5015633;28;20204;-67
2023/04/02 04:28:58;;;;;;;3.33;3.03;;;;;;;;;;5020715;28;20232;-68
2023/04/02 04:31:32;;;;;;;3.00;2.80;;;;;;;;;;5022291;28;20211;-68
2023/04/02 04:34:04;;;;;;;3.70;3.20;;;;;;;;;;5023397;28;20210;-67
2023/04/02 04:36:34;;;;;;;3.47;3.17;;;;;;;;;;5023481;28;20211;-67
2023/04/02 04:39:06;;;;;;;3.33;3.03;;;;;;;;;;5022988;28;20212;-68
2023/04/02 04:41:36;;;;;;;3.70;3.40;;;;;;;;;;5021999;28;20220;-68
2023/04/02 04:44:07;;;;;;;3.80;3.50;;;;;;;;;;5022277;28;20209;-68
2023/04/02 04:46:38;;;;;;;4.60;3.13;;;;;;;;;;5023289;28;20205;-68
2023/04/02 04:49:09;;;;;;;3.77;3.47;;;;;;;;;;5021216;28;20212;-68
2023/04/02 04:51:37;;;;;;;3.60;3.30;;;;;;;;;;5020359;28;20205;-67
2023/04/02 04:54:04;;;;;;;2.97;2.70;;;;;;;;;;5018545;28;20204;-67
2023/04/02 04:56:32;;;;;;;3.87;2.70;;;;;;;;;;5021854;28;20209;-68
2023/04/02 04:59:02;;;;;;;2.60;2.40;;;;;;;;;;5016730;28;20209;-68
2023/04/02 05:01:33;;;;;;;3.40;2.50;;;;;;;;;;5023365;28;20212;-67
2023/04/02 05:04:04;;;;;;;2.40;2.20;;;;;;;;;;5016336;28;20209;-67
2023/04/02 05:06:36;;;;;;;1.93;1.83;;;;;;;;;;5020814;28;20211;-68
2023/04/02 05:09:06;;;;;;;2.23;1.97;;;;;;;;;;5018257;28;20203;-67
2023/04/02 05:11:36;;;;;;;2.30;2.10;;;;;;;;;;5023987;28;20204;-67
2023/04/02 05:14:06;;;;;;;2.10;2.00;;;;;;;;;;5016789;28;20262;-67
2023/04/02 05:16:37;;;;;;;1.90;1.80;;;;;;;;;;5024236;28;20231;-67
2023/04/02 05:19:08;;;;;;;2.00;1.80;;;;;;;;;;5022584;28;20220;-67
2023/04/02 05:21:38;;;;;;;1.90;1.70;;;;;;;;;;5025996;28;20215;-68
2023/04/02 05:24:18;;;;;;;1.77;1.67;;;;;;;;;;5022565;28;20217;-67
2023/04/02 05:26:47;;;;;;;1.70;1.60;;;;;;;;;;5021466;28;20211;-67
2023/04/02 05:29:17;;;;;;;2.00;1.90;;;;;;;;;;5014949;28;20207;-67
2023/04/02 05:31:47;;;;;;;1.80;1.70;;;;;;;;;;5021339;28;20296;-68
2023/04/02 05:34:22;;;;;;;2.40;2.20;;;;;;;;;;5020344;28;20266;-67
2023/04/02 05:36:50;;;;;;;2.20;2.07;;;;;;;;;;5028688;28;20204;-67
2023/04/02 05:39:21;;;;;;;2.20;2.10;;;;;;;;;;5015574;28;20207;-67
2023/04/02 05:41:48;;;;;;;2.53;2.23;;;;;;;;;;5019804;28;20211;-67
2023/04/02 05:44:19;;;;;;;2.10;2.00;;;;;;;;;;5021547;28;20212;-67
2023/04/02 05:46:48;;;;;;;2.43;1.97;;;;;;;;;;5023621;28;20274;-68
2023/04/02 05:49:19;;;;;;;2.50;2.30;;;;;;;;;;5023367;28;20204;-67
2023/04/02 05:51:47;;;;;;;2.00;1.90;;;;;;;;;;5016897;28;20204;-68
2023/04/02 05:54:22;;;;;;;2.20;2.10;;;;;;;;;;5019304;28;20215;-67
2023/04/02 05:56:51;;;;;;;1.90;1.80;;;;;;;;;;5019960;28;20206;-67
2023/04/02 05:59:20;;;;;;;1.70;1.60;;;;;;;;;;5019040;28;20227;-67
2023/04/02 06:01:48;;;;;;;1.60;1.50;;;;;;;;;;5020268;28;20208;-67
2023/04/02 06:04:21;;;;;;;1.43;1.33;;;;;;;;;;5022693;28;20205;-67
2023/04/02 06:06:53;;;;;;;1.50;1.40;;;;;;;;;;5018299;28;20208;-67
2023/04/02 06:09:25;;;;;;;1.60;1.50;;;;;;;;;;5015365;28;20228;-67
2023/04/02 06:11:55;;;;;;;1.40;1.30;;;;;;;;;;5020123;28;20267;-67
2023/04/02 06:14:22;;;;;;;1.50;1.40;;;;;;;;;;5015810;28;20204;-67
2023/04/02 06:16:49;;;;;;;1.37;1.10;;;;;;;;;;5022170;28;20235;-67
2023/04/02 06:19:21;;;;;;;1.67;1.10;;;;;;;;;;5026677;28;20201;-68
2023/04/02 06:21:49;;;;;;;1.43;1.33;;;;;;;;;;5025905;28;20211;-67
2023/04/02 06:24:18;;;;;;;1.30;1.23;;;;;;;;;;5027787;28;20208;-67
2023/04/02 06:26:46;;;;;;;1.20;1.10;;;;;;;;;;5026943;28;20209;-67
2023/04/02 06:29:18;;;;;;;1.30;1.20;;;;;;;;;;5022035;28;20200;-67
2023/04/02 06:31:46;;;;;;;1.27;1.27;;;;;;;;;;5024412;28;20207;-67
2023/04/02 06:34:15;;;;;;;1.40;1.30;;;;;;;;;;5023577;28;20216;-67
2023/04/02 06:36:44;;;;;;;1.10;1.10;;;;;;;;;;5022187;28;20216;-67
2023/04/02 06:39:15;;;;;;;1.20;1.20;;;;;;;;;;5023398;28;20211;-68
2023/04/02 06:41:42;;;;;;;1.10;1.10;;;;;;;;;;5021571;28;20214;-67
2023/04/02 06:44:12;;;;;;;1.00;1.00;;;;;;;;;;5024558;28;20236;-68
2023/04/02 06:46:43;;;;;;;1.10;1.00;;;;;;;;;;5017928;28;20263;-67
2023/04/02 06:49:15;;;;;;;0.90;0.90;;;;;;;;;;5016181;28;20216;-68
2023/04/02 06:51:44;;;;;;;1.20;1.20;;;;;;;;;;5019161;28;20196;-68
2023/04/02 06:54:14;;;;;;;1.93;1.20;;;;;;;;;;5026784;28;20197;-68
2023/04/02 06:56:43;;;;;;;1.33;1.23;;;;;;;;;;5028210;28;20208;-68
2023/04/02 06:59:11;;;;;;;1.27;1.07;;;;;;;;;;5025899;28;20201;-68
2023/04/02 07:01:40;;;;;;;1.07;0.97;;;;;;;;;;5021300;28;20208;-69
2023/04/02 07:04:07;;;;;;;1.60;1.10;;;;;;;;;;5022388;28;20231;-68
2023/04/02 07:06:35;;;;;;;1.00;1.00;;;;;;;;;;5024524;28;20212;-68
2023/04/02 07:09:03;;;;;;;1.00;1.00;;;;;;;;;;5018875;28;20204;-68
2023/04/02 07:11:30;;;;;;;0.83;0.83;;;;;;;;;;5020192;28;20208;-68
2023/04/02 07:13:57;;;;;;;1.10;1.00;;;;;;;;;;5019448;28;20212;-68
2023/04/02 07:16:25;;;;;;;0.73;0.73;;;;;;;;;;5025743;28;20238;-68
2023/04/02 07:18:54;;;;;;;0.77;0.77;;;;;;;;;;5019454;28;20212;-68
2023/04/02 07:21:21;;;;;;;0.90;0.90;;;;;;;;;;5020415;28;20211;-68
2023/04/02 07:23:48;;;;;;;1.20;1.10;;;;;;;;;;5016112;28;20232;-68
2023/04/02 07:26:17;;;;;;;1.20;1.10;;;;;;;;;;5026208;28;20212;-68
2023/04/02 07:28:45;;;;;;;0.77;0.77;;;;;;;;;;5026191;28;20231;-68
2023/04/02 07:31:19;;;;;;;1.23;0.80;;;;;;;;;;5022376;28;20200;-67
2023/04/02 07:33:46;;;;;;;1.00;1.00;;;;;;;;;;5020537;28;20220;-68
2023/04/02 07:36:14;;;;;;;1.17;0.80;;;;;;;;;;5025191;28;20208;-67
2023/04/02 07:38:41;;;;;;;1.50;1.40;;;;;;;;;;5018494;28;20209;-67
2023/04/02 07:41:08;;;;;;;0.80;0.80;;;;;;;;;;5024737;28;20209;-67
2023/04/02 07:43:37;;;;;;;3.13;2.00;;;;;;;;;;5019137;28;20229;-67
2023/04/02 07:46:05;;;;;;;1.00;1.00;;;;;;;;;;5024547;28;20204;-67
2023/04/02 07:48:32;;;;;;;1.87;1.70;;;;;;;;;;5022985;28;20238;-67
2023/04/02 07:50:59;;;;;;;1.00;1.00;;;;;;;;;;5025604;28;20208;-68
2023/04/02 07:53:28;;;;;;;1.30;1.20;;;;;;;;;;5019178;28;20207;-68
2023/04/02 07:55:55;;;;;;;2.60;1.30;;;;;;;;;;5021271;28;20201;-67
2023/04/02 07:58:22;;;;;;;1.00;1.00;;;;;;;;;;5018403;28;20209;-67
2023/04/02 08:00:51;;;;;;;2.40;2.30;;;;;;;;;;5021754;28;20205;-68
2023/04/02 08:03:19;;;;;;;1.70;1.60;;;;;;;;;;5026570;28;20216;-67
2023/04/02 08:05:50;;;;;;;1.67;1.57;;;;;;;;;;5024552;28;20219;-67
2023/04/02 08:08:17;;;;;;;0.93;0.93;;;;;;;;;;5020981;28;20208;-67
2023/04/02 08:10:44;;;;;;;1.70;1.60;;;;;;;;;;5021758;28;20199;-67
2023/04/02 08:13:11;;;;;;;1.17;1.13;;;;;;;;;;5018406;28;20236;-67
2023/04/02 08:15:39;;;;;;;1.47;1.13;;;;;;;;;;5018080;28;20211;-67
2023/04/02 08:18:07;;;;;;;1.50;1.40;;;;;;;;;;5023689;28;20208;-68
2023/04/02 08:20:34;;;;;;;2.00;1.30;;;;;;;;;;5018339;28;20223;-68
2023/04/02 08:23:01;;;;;;;1.17;1.17;;;;;;;;;;5019527;28;20216;-68
2023/04/02 08:25:29;;;;;;;2.37;1.40;;;;;;;;;;5021154;28;20236;-67
2023/04/02 08:27:56;;;;;;;1.40;1.30;;;;;;;;;;5018857;28;20232;-67
2023/04/02 08:30:23;;;;;;;1.20;1.10;;;;;;;;;;5019414;28;20246;-68
2023/04/02 08:32:50;;;;;;;0.93;0.93;;;;;;;;;;5015406;28;20219;-68
2023/04/02 08:35:19;;;;;;;0.87;0.87;;;;;;;;;;5017880;28;20212;-68
2023/04/02 08:37:46;;;;;;;1.10;1.10;;;;;;;;;;5018566;28;20200;-68
2023/04/02 08:40:20;;;;;;;0.80;0.80;;;;;;;;;;5022806;28;20205;-69
2023/04/02 08:42:51;;;;;;;0.90;0.90;;;;;;;;;;5020096;28;20220;-69
2023/04/02 08:45:21;;;;;;;0.90;0.90;;;;;;;;;;5021284;28;20204;-69
2023/04/02 08:47:49;;;;;;;0.90;0.90;;;;;;;;;;5019410;28;20204;-68
2023/04/02 08:50:22;;;;;;;1.27;0.80;;;;;;;;;;5021437;28;20203;-67
2023/04/02 08:52:50;;;;;;;0.83;0.83;;;;;;;;;;5024574;28;20208;-68
2023/04/02 08:55:22;;;;;;;0.90;0.90;;;;;;;;;;5020434;28;20208;-68
2023/04/02 08:57:52;;;;;;;0.90;0.90;;;;;;;;;;5019357;28;20201;-68
2023/04/02 09:00:26;;;;;;;0.90;0.90;;;;;;;;;;5020285;28;20200;-67
2023/04/02 09:02:55;;;;;;;1.00;1.00;;;;;;;;;;5020386;28;20258;-68
2023/04/02 09:05:24;;;;;;;1.10;1.10;;;;;;;;;;5013865;28;20216;-69
2023/04/02 09:07:53;;;;;;;1.20;1.10;;;;;;;;;;5020609;28;20266;-68
2023/04/02 09:10:21;;;;;;;1.20;1.20;;;;;;;;;;5019320;28;20208;-68
2023/04/02 09:12:51;;;;;;;1.50;1.30;;;;;;;;;;5022666;28;20207;-68
2023/04/02 09:15:23;;;;;;;1.90;1.30;;;;;;;;;;5019038;28;20208;-68
2023/04/02 09:17:52;;;;;;;2.00;1.50;;;;;;;;;;5023347;28;20258;-68
2023/04/02 09:20:20;;;;;;;1.00;0.90;;;;;;;;;;5025502;28;20267;-68
2023/04/02 09:22:49;;;;;;;3.13;1.10;;;;;;;;;;5015549;28;20217;-68
2023/04/02 09:25:20;;;;;;;0.97;0.97;;;;;;;;;;5022530;28;20201;-69
2023/04/02 09:27:49;;;;;;;1.00;1.00;;;;;;;;;;5021614;28;20243;-69
2023/04/02 09:30:25;;;;;;;1.07;1.07;;;;;;;;;;5019649;28;20270;-68
2023/04/02 09:32:53;;;;;;;1.20;1.10;;;;;;;;;;5021682;28;20204;-68
2023/04/02 09:35:22;;;;;;;0.90;0.90;;;;;;;;;;5019332;28;20213;-67
2023/04/02 09:38:09;;;;;;;1.13;1.13;;;;;;;;;;5023737;28;20302;-67
2023/04/02 09:40:42;;;;;;;0.80;0.80;;;;;;;;;;5019302;28;20208;-68
2023/04/02 09:43:11;;;;;;;1.03;1.03;;;;;;;;;;5019685;28;20205;-69
2023/04/02 09:45:39;;;;;;;1.10;1.10;;;;;;;;;;5019625;28;20592;-69
2023/04/02 09:48:16;;;;;;;0.80;0.80;;;;;;;;;;5022592;28;20228;-69
2023/04/02 09:50:43;;;;;;;0.87;0.83;;;;;;;;;;5023861;28;20283;-69
2023/04/02 09:53:24;;;;;;;0.80;0.80;;;;;;;;;;5021236;28;20215;-69
2023/04/02 09:56:07;;;;;;;0.97;0.80;;;;;;;;;;5026867;28;20207;-69
2023/04/02 09:58:34;;;;;;;0.80;0.80;;;;;;;;;;5023937;28;20207;-68
2023/04/02 10:01:01;;;;;;;0.70;0.70;;;;;;;;;;5025734;28;20295;-69
2023/04/02 10:03:29;;;;;;;0.70;0.70;;;;;;;;;;5025598;28;20230;-68
2023/04/02 10:06:07;;;;;;;0.90;0.90;;;;;;;;;;5022541;28;20211;-68
2023/04/02 10:08:35;;;;;;;0.90;0.90;;;;;;;;;;5024038;28;20234;-68
2023/04/02 10:11:05;;;;;;;0.80;0.80;;;;;;;;;;5023502;28;20286;-68
2023/04/02 10:13:34;;;;;;;0.77;0.77;;;;;;;;;;5019241;28;20283;-69
2023/04/02 10:16:04;;;;;;;0.60;0.60;;;;;;;;;;5024439;28;20211;-68
2023/04/02 10:18:36;;;;;;;0.80;0.80;;;;;;;;;;5018658;28;20230;-68
2023/04/02 10:21:05;;;;;;;1.00;0.90;;;;;;;;;;5017525;28;20204;-68
2023/04/02 10:23:32;;;;;;;0.70;0.70;;;;;;;;;;5025410;28;20223;-68
2023/04/02 10:26:04;;;;;;;1.33;1.20;;;;;;;;;;5031220;28;20208;-67
2023/04/02 10:28:41;;;;;;;1.03;0.80;;;;;;;;;;5024347;28;20235;-67
2023/04/02 10:31:11;;;;;;;0.80;0.80;;;;;;;;;;5018779;28;20215;-67
2023/04/02 10:33:41;;;;;;;1.20;1.20;;;;;;;;;;5023778;28;20208;-68
2023/04/02 10:36:10;;;;;;;1.50;0.83;;;;;;;;;;5021561;28;20212;-68
2023/04/02 10:38:46;;;;;;;0.80;0.80;;;;;;;;;;5020202;28;20208;-68
2023/04/02 10:41:21;;;;;;;0.80;0.80;;;;;;;;;;5026726;28;20208;-68
2023/04/02 10:44:06;;;;;;;1.13;0.60;;;;;;;;;;5020270;28;20223;-68
2023/04/02 10:46:37;;;;;;;1.40;1.20;;;;;;;;;;5018989;28;20216;-69
2023/04/02 10:49:10;;;;;;;0.83;0.83;;;;;;;;;;5017591;28;20223;-69
2023/04/02 10:51:39;;;;;;;0.70;0.70;;;;;;;;;;5023405;28;20196;-68
2023/04/02 10:54:14;;;;;;;0.80;0.80;;;;;;;;;;5020013;28;20213;-68
2023/04/02 10:56:43;;;;;;;0.80;0.80;;;;;;;;;;5028053;28;20207;-68
2023/04/02 10:59:14;;;;;;;0.70;0.70;;;;;;;;;;5020451;28;20212;-69
2023/04/02 11:01:44;;;;;;;0.83;0.83;;;;;;;;;;5024388;28;20205;-68
2023/04/02 11:04:17;;;;;;;0.80;0.80;;;;;;;;;;5019113;28;20279;-68
2023/04/02 11:06:47;;;;;;;0.60;0.60;;;;;;;;;;5022625;28;20201;-68
2023/04/02 11:09:16;;;;;;;0.67;0.67;;;;;;;;;;5017564;28;20206;-69
2023/04/02 11:11:45;;;;;;;0.80;0.80;;;;;;;;;;5018204;28;20220;-68
2023/04/02 11:14:14;;;;;;;0.70;0.70;;;;;;;;;;5019065;28;20208;-68
2023/04/02 11:16:41;;;;;;;1.10;0.63;;;;;;;;;;5023727;28;20236;-69
2023/04/02 11:19:21;;;;;;;0.70;0.70;;;;;;;;;;5022249;28;20192;-69
2023/04/02 11:21:49;;;;;;;0.93;0.60;;;;;;;;;;5018688;28;20200;-68
2023/04/02 11:24:40;;;;;;;0.60;0.60;;;;;;;;;;5019699;28;20224;-68
2023/04/02 11:27:08;;;;;;;1.00;1.00;;;;;;;;;;5013072;28;20313;-68
2023/04/02 11:29:37;;;;;;;1.40;1.30;;;;;;;;;;5023388;28;20200;-69
2023/04/02 11:32:16;;;;;;;0.87;0.87;;;;;;;;;;5019129;28;20215;-68
2023/04/02 11:35:05;;;;;;;0.70;0.70;;;;;;;;;;5028312;28;20208;-69
2023/04/02 11:37:35;;;;;;;0.73;0.73;;;;;;;;;;5025464;28;20204;-68
2023/04/02 11:40:03;;;;;;;0.80;0.80;;;;;;;;;;5021656;28;20214;-68
2023/04/02 11:42:32;;;;;;;0.70;0.70;;;;;;;;;;5020343;28;20231;-69
2023/04/02 11:45:01;;;;;;;1.67;1.40;;;;;;;;;;5020381;28;20228;-68
2023/04/02 11:47:28;;;;;;;0.90;0.90;;;;;;;;;;5020960;28;20205;-69
2023/04/02 11:50:07;;;;;;;1.37;1.10;;;;;;;;;;5020568;28;20219;-69
2023/04/02 11:52:39;;;;;;;2.47;1.27;;;;;;;;;;5023549;28;20295;-69
2023/04/02 11:55:23;;;;;;;1.27;1.00;;;;;;;;;;5023001;28;20228;-68
2023/04/02 11:58:10;;;;;;;1.73;1.63;;;;;;;;;;5021959;28;20210;-68
2023/04/02 12:00:52;;;;;;;1.17;1.17;;;;;;;;;;5018232;28;20204;-68
2023/04/02 12:03:32;;;;;;;1.57;1.47;;;;;;;;;;5025176;28;20217;-69
2023/04/02 12:06:06;;;;;;;1.63;1.50;;;;;;;;;;5023130;28;20252;-68
2023/04/02 12:08:41;;;;;;;1.20;1.10;;;;;;;;;;5020086;28;20254;-70
2023/04/02 12:11:08;;;;;;;1.23;1.10;;;;;;;;;;5022607;28;20204;-70
2023/04/02 12:13:49;;;;;;;1.33;1.30;;;;;;;;;;5021956;28;20196;-70
2023/04/02 12:16:17;;;;;;;2.20;2.00;;;;;;;;;;5011939;28;20205;-68
2023/04/02 12:18:45;;;;;;;1.50;1.40;;;;;;;;;;5024965;28;20266;-67
2023/04/02 12:21:17;;;;;;;2.20;2.00;;;;;;;;;;5022733;28;20216;-68
2023/04/02 12:23:46;;;;;;;2.23;2.10;;;;;;;;;;5023708;28;20205;-68
2023/04/02 12:26:26;;;;;;;1.53;1.43;;;;;;;;;;5019239;28;20216;-70
2023/04/02 12:28:55;;;;;;;1.17;1.17;;;;;;;;;;5021501;28;20231;-70
2023/04/02 12:31:23;;;;;;;1.20;1.10;;;;;;;;;;5013294;28;20200;-68
2023/04/02 12:33:52;;;;;;;1.00;0.90;;;;;;;;;;5017194;28;20208;-68
2023/04/02 12:36:21;;;;;;;0.90;0.90;;;;;;;;;;5019647;28;20220;-69
2023/04/02 12:38:49;;;;;;;0.70;0.70;;;;;;;;;;5020474;28;20203;-68
2023/04/02 12:41:22;;;;;;;1.00;1.00;;;;;;;;;;5019208;28;20204;-70
2023/04/02 12:43:56;;;;;;;0.90;0.90;;;;;;;;;;5020063;28;20212;-69
2023/04/02 12:46:24;;;;;;;1.33;0.90;;;;;;;;;;5022390;28;20221;-71
2023/04/02 12:48:52;;;;;;;0.80;0.80;;;;;;;;;;5024539;28;20290;-68
2023/04/02 12:51:20;;;;;;;1.00;1.00;;;;;;;;;;5022505;28;20204;-69
2023/04/02 12:53:51;;;;;;;1.10;1.10;;;;;;;;;;5018758;28;20204;-68
2023/04/02 12:56:21;;;;;;;0.93;0.80;;;;;;;;;;5024132;28;20201;-69
2023/04/02 12:58:53;;;;;;;0.80;0.80;;;;;;;;;;5022095;28;20213;-69
2023/04/02 13:01:22;;;;;;;0.87;0.87;;;;;;;;;;5014420;28;20211;-68
2023/04/02 13:04:10;;;;;;;0.80;0.80;;;;;;;;;;5022414;28;20205;-69
2023/04/02 13:06:39;;;;;;;0.90;0.90;;;;;;;;;;5018834;28;20243;-69
2023/04/02 13:09:07;;;;;;;1.00;1.00;;;;;;;;;;5019185;28;20299;-70
2023/04/02 13:11:35;;;;;;;0.90;0.90;;;;;;;;;;5022494;28;20217;-69
2023/04/02 13:14:03;;;;;;;0.80;0.80;;;;;;;;;;5019159;28;20228;-68
2023/04/02 13:16:34;;;;;;;0.73;0.73;;;;;;;;;;5015957;28;20217;-68
2023/04/02 13:19:22;;;;;;;1.20;1.07;;;;;;;;;;5019957;28;20208;-68
2023/04/02 13:21:52;;;;;;;0.90;0.90;;;;;;;;;;5021383;28;20216;-68
2023/04/02 13:24:19;;;;;;;1.47;0.97;;;;;;;;;;5022171;28;20258;-68
2023/04/02 13:26:48;;;;;;;2.00;0.80;;;;;;;;;;5018746;28;20236;-69
2023/04/02 13:29:20;;;;;;;0.63;0.63;;;;;;;;;;5020376;28;20258;-69
2023/04/02 13:31:47;;;;;;;0.90;0.77;;;;;;;;;;5020857;28;20211;-69
2023/04/02 13:34:14;;;;;;;0.80;0.80;;;;;;;;;;5026380;28;20200;-69
2023/04/02 13:36:41;;;;;;;1.10;1.10;;;;;;;;;;5023583;28;20200;-69
2023/04/02 13:39:10;;;;;;;1.17;1.17;;;;;;;;;;5022196;28;20211;-68
2023/04/02 13:41:39;;;;;;;1.33;1.23;;;;;;;;;;5023243;28;20216;-69
2023/04/02 13:44:07;;;;;;;1.10;1.10;;;;;;;;;;5024884;28;20287;-69
2023/04/02 13:46:34;;;;;;;1.20;1.20;;;;;;;;;;5023396;28;20228;-68
2023/04/02 13:49:01;;;;;;;1.20;1.20;;;;;;;;;;5024452;28;20209;-70
2023/04/02 13:51:33;;;;;;;1.10;1.10;;;;;;;;;;5022343;28;20208;-69
2023/04/02 13:54:00;;;;;;;1.10;1.10;;;;;;;;;;5023999;28;20212;-69
2023/04/02 13:56:30;;;;;;;1.20;1.20;;;;;;;;;;5020484;28;20213;-68
2023/04/02 13:58:57;;;;;;;1.30;1.30;;;;;;;;;;5025783;28;20200;-69
2023/04/02 14:01:26;;;;;;;1.27;1.27;;;;;;;;;;5023389;28;20201;-69
2023/04/02 14:03:53;;;;;;;1.10;1.10;;;;;;;;;;5025527;28;20200;-69
2023/04/02 14:06:24;;;;;;;1.20;1.20;;;;;;;;;;5022623;28;20228;-69
2023/04/02 14:08:56;;;;;;;1.60;1.50;;;;;;;;;;5021603;28;20208;-70
2023/04/02 14:11:28;;;;;;;1.73;1.63;;;;;;;;;;5024490;28;20208;-69
2023/04/02 14:14:03;;;;;;;1.80;1.70;;;;;;;;;;5019224;28;20204;-69
2023/04/02 14:16:42;;;;;;;1.70;1.60;;;;;;;;;;5023809;28;20218;-69
2023/04/02 14:19:16;;;;;;;1.33;1.33;;;;;;;;;;5019734;28;20286;-68
2023/04/02 14:21:48;;;;;;;2.30;2.20;;;;;;;;;;5023721;28;20216;-69
2023/04/02 14:24:19;;;;;;;2.23;1.97;;;;;;;;;;5026730;28;20215;-68
2023/04/02 14:26:56;;;;;;;1.70;1.53;;;;;;;;;;5026256;28;20230;-69
2023/04/02 14:29:27;;;;;;;1.90;1.80;;;;;;;;;;5024866;28;20211;-69
2023/04/02 14:32:00;;;;;;;1.70;1.60;;;;;;;;;;5025158;28;20211;-69
2023/04/02 14:34:33;;;;;;;1.70;1.60;;;;;;;;;;5023694;28;20223;-69
2023/04/02 14:37:04;;;;;;;1.90;1.80;;;;;;;;;;5018866;28;20207;-69
2023/04/02 14:39:37;;;;;;;2.17;1.97;;;;;;;;;;5021262;28;20219;-68
2023/04/02 14:42:07;;;;;;;1.70;1.60;;;;;;;;;;5021147;28;20204;-69
2023/04/02 14:44:39;;;;;;;1.70;1.60;;;;;;;;;;5019221;28;20205;-69
2023/04/02 14:47:13;;;;;;;1.73;1.63;;;;;;;;;;5018494;28;20206;-68
2023/04/02 14:49:41;;;;;;;1.80;1.70;;;;;;;;;;5020518;28;20207;-68
2023/04/02 14:52:12;;;;;;;1.90;1.73;;;;;;;;;;5020192;28;20204;-68
2023/04/02 14:54:41;;;;;;;2.17;1.80;;;;;;;;;;5022338;28;20293;-68
2023/04/02 14:57:15;;;;;;;2.50;1.90;;;;;;;;;;5022854;28;20234;-69
2023/04/02 14:59:51;;;;;;;2.00;1.90;;;;;;;;;;5016944;28;20217;-68
2023/04/02 15:02:21;;;;;;;2.10;2.00;;;;;;;;;;5020816;28;20214;-70
2023/04/02 15:04:51;;;;;;;2.10;2.00;;;;;;;;;;5027592;28;20205;-68